KACT - Waco Rgnl, TX, US

Issued at 1130 UTC 16 Jul 2019
Updated at 1207 UTC 16 Jul 2019
Potential Impact None Slight Moderate High
Time1151Z 16/13Z 16/14Z 16/15Z 16/16Z 16/17Z 16/18Z 16/19Z 16/20Z 16/21Z 16/22Z 16/23Z 17/00Z 17/01Z>>
Type OBS PRVL PRVL PRVL PRVL PRVL PRVL PRVL PRVL PRVL PRVL PRVL PRVL PRVL
VIS 10 >6 >6 >6 >6 >6 >6 >6 >6 >6 >6 >6 >6 >6
CIG -- -- -- -- -- -- -- -- -- -- -- -- -- --
Cover CLR FEW FEW FEW FEW FEW FEW FEW FEW FEW FEW FEW FEW FEW
FltCat VFR VFR VFR VFR VFR VFR VFR VFR VFR VFR VFR VFR VFR VFR
WX -- -- -- -- -- -- -- -- -- -- -- -- -- --
WDir 190 180 180 180 180 180 180 180 180 180 180 180 180 180
WSpd 11 12 12 12 12 12 12 12 12 12 12 12 12 12
WGst -- -- -- -- -- -- -- -- -- -- -- -- -- --
Raw TAF
KACT 161130Z 1612/1712 18012KT P6SM FEW050

Raw METAR
KACT 161151Z 19011KT 10SM CLR 26/23 A2997 RMK AO2 SLP138 T02610233 10289 20261 53014 $
KACT 161051Z 18011KT 10SM CLR 26/23 A2995 RMK AO2 SLP134 T02610233 $
KACT 160951Z AUTO 19013KT 10SM CLR 27/23 A2993 RMK AO2 SLP127 T02670228 $

METAR Board
Radar Display
Forecast Discussion
For situational awareness. Not to be used for flight planning purposes.